createdAt,value
2022-08-17T00:00:52.182Z,99223.66
2022-08-17T00:03:24.429Z,99221.66
2022-08-17T00:05:58.665Z,99224.53
2022-08-17T00:08:32.095Z,99225.38
2022-08-17T00:11:02.450Z,99219.09
2022-08-17T00:13:35.341Z,99222.28
2022-08-17T00:16:07.793Z,99228.19
2022-08-17T00:18:58.300Z,99221.16
2022-08-17T00:22:29.841Z,99221.50
2022-08-17T00:24:21.753Z,99222.66
2022-08-17T00:26:50.922Z,99221.94
2022-08-17T00:29:20.805Z,99223.78
2022-08-17T00:31:51.239Z,99225.84
2022-08-17T00:34:20.542Z,99225.13
2022-08-17T00:36:49.928Z,99217.22
2022-08-17T00:39:20.987Z,99217.28
2022-08-17T00:41:50.335Z,99215.44
2022-08-17T00:44:19.753Z,99214.78
2022-08-17T00:46:49.376Z,99219.56
2022-08-17T00:49:19.905Z,99210.00
2022-08-17T00:51:54.536Z,99211.22
2022-08-17T00:54:28.736Z,99213.50
2022-08-17T00:57:04.014Z,99202.91
2022-08-17T00:59:37.942Z,99204.44
2022-08-17T01:02:10.254Z,99208.22
2022-08-17T01:04:40.220Z,99200.47
2022-08-17T01:07:11.373Z,99203.97
2022-08-17T01:09:42.886Z,99204.84
2022-08-17T01:12:13.584Z,99199.03
2022-08-17T01:14:43.012Z,99200.97
2022-08-17T01:17:12.358Z,99195.16
2022-08-17T01:19:43.157Z,99197.84
2022-08-17T01:22:25.887Z,99188.72
2022-08-17T01:24:59.977Z,99192.59
2022-08-17T01:27:30.581Z,99193.63
2022-08-17T01:30:04.469Z,99194.16
2022-08-17T01:32:54.462Z,99191.44
2022-08-17T01:35:23.936Z,99193.88
2022-08-17T01:37:54.790Z,99193.09
2022-08-17T01:40:30.678Z,99199.75
2022-08-17T01:43:03.104Z,99194.69
2022-08-17T01:45:35.253Z,99194.19
2022-08-17T01:48:04.777Z,99193.81
2022-08-17T01:50:38.175Z,99194.53
2022-08-17T01:53:14.707Z,99187.00
2022-08-17T01:55:50.756Z,99185.00
2022-08-17T01:58:21.742Z,99185.59
2022-08-17T02:01:01.174Z,99191.50
2022-08-17T02:03:33.169Z,99190.84
2022-08-17T02:06:02.609Z,99182.56
2022-08-17T02:08:38.103Z,99187.25
2022-08-17T02:11:14.180Z,99192.47
2022-08-17T02:13:44.556Z,99189.72
2022-08-17T02:16:16.032Z,99180.88
2022-08-17T02:18:44.807Z,99178.38
2022-08-17T02:21:14.921Z,99191.09
2022-08-17T02:23:49.678Z,99184.16
2022-08-17T02:26:26.368Z,99186.31
2022-08-17T02:28:56.416Z,99186.06
2022-08-17T02:31:25.492Z,99185.63
2022-08-17T02:33:56.840Z,99192.69
2022-08-17T02:36:33.102Z,99197.28
2022-08-17T02:39:04.789Z,99184.91
2022-08-17T02:41:34.001Z,99186.34
2022-08-17T02:44:03.462Z,99192.22
2022-08-17T02:46:33.390Z,99195.63
2022-08-17T02:49:03.518Z,99195.09
2022-08-17T02:51:33.556Z,99191.50
2022-08-17T02:54:40.687Z,99187.50
2022-08-17T02:56:54.779Z,99189.03
2022-08-17T02:59:24.609Z,99185.44
2022-08-17T03:01:54.102Z,99185.00
2022-08-17T03:04:23.726Z,99186.38
2022-08-17T03:06:53.080Z,99189.09
2022-08-17T03:09:23.429Z,99189.88
2022-08-17T03:11:53.181Z,99186.94
2022-08-17T03:14:26.359Z,99182.47
2022-08-17T03:16:56.400Z,99183.75
2022-08-17T03:19:25.589Z,99189.66
2022-08-17T03:21:55.039Z,99186.75
2022-08-17T03:24:28.949Z,99189.78
2022-08-17T03:26:59.206Z,99185.81
2022-08-17T03:29:28.556Z,99183.91
2022-08-17T03:31:58.509Z,99190.94
2022-08-17T03:34:29.284Z,99195.56
2022-08-17T03:36:58.865Z,99190.38
2022-08-17T03:39:29.940Z,99180.81
2022-08-17T03:42:06.859Z,99187.31
2022-08-17T03:44:37.343Z,99190.31
2022-08-17T03:47:20.728Z,99188.25
2022-08-17T03:50:10.416Z,99196.94
2022-08-17T03:52:57.537Z,99189.72
2022-08-17T03:55:45.420Z,99189.84
2022-08-17T03:58:15.002Z,99189.72
2022-08-17T04:00:46.453Z,99191.25
2022-08-17T04:03:16.072Z,99195.41
2022-08-17T04:05:45.395Z,99188.91
2022-08-17T04:08:14.506Z,99185.94
2022-08-17T04:10:45.482Z,99191.31
2022-08-17T04:13:15.227Z,99191.88
2022-08-17T04:15:53.466Z,99197.19
2022-08-17T04:18:22.497Z,99193.63
2022-08-17T04:20:52.444Z,99185.84
2022-08-17T04:23:22.563Z,99188.50
2022-08-17T04:25:55.866Z,99187.94
2022-08-17T04:28:25.074Z,99189.09
2022-08-17T04:30:54.325Z,99182.09
2022-08-17T04:33:25.191Z,99180.81
2022-08-17T04:35:56.316Z,99182.88
2022-08-17T04:38:27.620Z,99183.13
2022-08-17T04:41:15.973Z,99183.28
2022-08-17T04:43:47.555Z,99181.13
2022-08-17T04:46:19.549Z,99183.47
2022-08-17T04:48:51.621Z,99184.44
2022-08-17T04:51:27.323Z,99182.38
2022-08-17T04:53:59.126Z,99176.81
2022-08-17T04:56:30.673Z,99174.28
2022-08-17T04:59:05.435Z,99177.06
2022-08-17T05:01:41.301Z,99174.88
2022-08-17T05:04:33.130Z,99173.88
2022-08-17T05:07:04.223Z,99165.94
2022-08-17T05:09:33.929Z,99176.09
2022-08-17T05:12:06.196Z,99169.22
2022-08-17T05:14:36.062Z,99171.31
2022-08-17T05:17:10.664Z,99162.19
2022-08-17T05:19:41.337Z,99153.03
2022-08-17T05:22:10.589Z,99162.56
2022-08-17T05:24:43.704Z,99160.44
2022-08-17T05:27:24.594Z,99155.13
2022-08-17T05:29:59.024Z,99150.97
2022-08-17T05:32:39.027Z,99152.88
2022-08-17T05:35:18.551Z,99155.88
2022-08-17T05:37:47.902Z,99159.88
2022-08-17T05:40:17.375Z,99157.88
2022-08-17T05:42:48.330Z,99154.09
2022-08-17T05:45:54.705Z,99157.44
2022-08-17T05:48:11.548Z,99160.34
2022-08-17T05:50:50.921Z,99157.94
2022-08-17T05:53:26.549Z,99156.28
2022-08-17T05:56:11.602Z,99149.25
2022-08-17T05:59:10.384Z,99146.91
2022-08-17T06:01:49.830Z,99148.69
2022-08-17T06:04:32.333Z,99153.06
2022-08-17T06:07:11.715Z,99153.28
2022-08-17T06:09:47.520Z,99150.59
2022-08-17T06:12:35.725Z,99147.13
2022-08-17T06:15:24.765Z,99150.94
2022-08-17T06:17:57.526Z,99151.50
2022-08-17T06:20:30.443Z,99151.38
2022-08-17T06:23:07.597Z,99158.28
2022-08-17T06:25:46.373Z,99161.03
2022-08-17T06:28:24.431Z,99159.34
2022-08-17T06:31:01.395Z,99157.16
2022-08-17T06:33:34.801Z,99157.25
2022-08-17T06:36:16.050Z,99159.72
2022-08-17T06:38:51.193Z,99160.28
2022-08-17T06:41:31.671Z,99156.09
2022-08-17T06:44:43.651Z,99149.44
2022-08-17T06:47:12.934Z,99158.16
2022-08-17T06:49:55.241Z,99159.00
2022-08-17T06:52:42.173Z,99150.97
2022-08-17T06:55:26.365Z,99157.97
2022-08-17T06:58:05.788Z,99159.56
2022-08-17T07:00:48.927Z,99152.97
2022-08-17T07:03:38.032Z,99151.72
2022-08-17T07:06:14.534Z,99154.63
2022-08-17T07:08:54.873Z,99155.59
2022-08-17T07:11:32.188Z,99152.78
2022-08-17T07:14:17.500Z,99140.94
2022-08-17T07:16:55.119Z,99142.66
2022-08-17T07:19:29.220Z,99131.00
2022-08-17T07:22:09.236Z,99143.88
2022-08-17T07:24:47.949Z,99141.06
2022-08-17T07:27:21.790Z,99134.50
2022-08-17T07:29:55.131Z,99141.47
2022-08-17T07:32:32.805Z,99133.03
2022-08-17T07:35:16.937Z,99132.50
2022-08-17T07:37:54.520Z,99134.72
2022-08-17T07:40:42.668Z,99126.88
2022-08-17T07:43:24.483Z,99125.91
2022-08-17T07:46:22.259Z,99132.38
2022-08-17T07:48:55.135Z,99122.75
2022-08-17T07:51:31.426Z,99119.19
2022-08-17T07:54:14.506Z,99123.03
2022-08-17T07:56:48.085Z,99119.72
2022-08-17T07:59:24.063Z,99123.31
2022-08-17T08:02:31.752Z,99116.72
2022-08-17T08:05:10.015Z,99125.38
2022-08-17T08:07:54.432Z,99129.00
2022-08-17T08:10:31.269Z,99112.00
2022-08-17T08:13:08.600Z,99126.34
2022-08-17T08:15:45.240Z,99129.72
2022-08-17T08:18:53.405Z,99132.09
2022-08-17T08:21:29.858Z,99123.84
2022-08-17T08:24:16.319Z,99123.56
2022-08-17T08:26:55.615Z,99124.31
2022-08-17T08:29:33.335Z,99120.69
2022-08-17T08:32:23.022Z,99116.09
2022-08-17T08:35:03.749Z,99118.13
2022-08-17T08:37:46.983Z,99124.56
2022-08-17T08:40:34.972Z,99116.69
2022-08-17T08:43:16.681Z,99118.66
2022-08-17T08:46:05.379Z,99113.16
2022-08-17T08:49:09.989Z,99113.41
2022-08-17T08:51:51.979Z,99110.22
2022-08-17T08:54:35.442Z,99106.44
2022-08-17T08:57:26.798Z,99103.63
2022-08-17T09:00:10.186Z,99105.94
2022-08-17T09:03:05.882Z,99105.53
2022-08-17T09:05:49.871Z,99105.41
2022-08-17T09:08:27.676Z,99098.50
2022-08-17T09:11:01.655Z,99099.25
2022-08-17T09:13:40.751Z,99100.78
2022-08-17T09:16:16.626Z,99096.00
2022-08-17T09:19:01.747Z,99095.09
2022-08-17T09:21:48.440Z,99093.72
2022-08-17T09:24:26.768Z,99083.97
2022-08-17T09:27:02.607Z,99083.53
2022-08-17T09:29:35.608Z,99089.66
2022-08-17T09:32:14.909Z,99092.97
2022-08-17T09:34:51.274Z,99084.28
2022-08-17T09:37:38.839Z,99091.34
2022-08-17T09:40:19.375Z,99088.38
2022-08-17T09:42:51.093Z,99086.75
2022-08-17T09:46:02.034Z,99084.34
2022-08-17T09:48:41.222Z,99091.94
2022-08-17T09:51:19.845Z,99091.50
2022-08-17T09:53:50.091Z,99090.13
2022-08-17T09:56:56.435Z,99089.59
2022-08-17T09:59:53.407Z,99084.44
2022-08-17T10:02:44.389Z,99081.13
2022-08-17T10:05:25.102Z,99080.50
2022-08-17T10:08:09.565Z,99084.97
2022-08-17T10:10:52.474Z,99081.75
2022-08-17T10:13:35.564Z,99076.56
2022-08-17T10:16:14.281Z,99077.50
2022-08-17T10:18:53.297Z,99076.13
2022-08-17T10:22:00.881Z,99077.94
2022-08-17T10:25:01.890Z,99084.09
2022-08-17T10:27:58.000Z,99088.19
2022-08-17T10:30:41.105Z,99073.72
2022-08-17T10:33:23.650Z,99067.38
2022-08-17T10:36:06.385Z,99065.00
2022-08-17T10:38:48.399Z,99081.69
2022-08-17T10:41:38.166Z,99065.31
2022-08-17T10:44:38.759Z,99065.47
2022-08-17T10:47:11.522Z,99070.53
2022-08-17T10:49:48.183Z,99059.44
2022-08-17T10:52:54.878Z,99059.19
2022-08-17T10:55:26.759Z,99053.06
2022-08-17T10:58:22.189Z,99042.75
2022-08-17T11:01:00.192Z,99053.59
2022-08-17T11:03:33.748Z,99055.34
2022-08-17T11:06:15.713Z,99040.16
2022-08-17T11:09:31.780Z,99047.31
2022-08-17T11:12:16.444Z,99045.22
2022-08-17T11:15:03.031Z,99042.69
2022-08-17T11:18:04.439Z,99047.31
2022-08-17T11:20:43.047Z,99045.28
2022-08-17T11:23:40.920Z,99037.06
2022-08-17T11:26:36.137Z,99041.00
2022-08-17T11:29:24.735Z,99046.03
2022-08-17T11:32:04.321Z,99029.72
2022-08-17T11:34:35.746Z,99035.50
2022-08-17T11:37:41.083Z,99036.66
2022-08-17T11:40:34.798Z,99037.03
2022-08-17T11:43:25.611Z,99036.00
2022-08-17T11:46:12.124Z,99026.56
2022-08-17T11:49:09.239Z,99017.22
2022-08-17T11:52:13.807Z,99022.34
2022-08-17T11:54:48.089Z,99021.94
2022-08-17T11:57:47.450Z,99007.53
2022-08-17T12:00:58.542Z,99006.09
2022-08-17T12:03:53.726Z,99006.66
2022-08-17T12:06:51.688Z,99003.06
2022-08-17T12:09:25.068Z,99004.19
2022-08-17T12:12:12.182Z,99010.44
2022-08-17T12:15:09.514Z,98994.66
2022-08-17T12:17:53.111Z,98997.97
2022-08-17T12:20:30.584Z,98995.91
2022-08-17T12:23:09.717Z,98991.59
2022-08-17T12:25:47.682Z,98995.81
2022-08-17T12:28:26.410Z,98992.44
2022-08-17T12:31:00.006Z,98989.06
2022-08-17T12:33:33.258Z,98992.16
2022-08-17T12:36:06.726Z,98984.59
2022-08-17T12:38:39.832Z,98986.66
2022-08-17T12:41:30.296Z,98984.88
2022-08-17T12:44:02.903Z,98985.19
2022-08-17T12:46:36.353Z,98982.31
2022-08-17T12:49:24.691Z,98986.31
2022-08-17T12:52:01.994Z,98980.25
2022-08-17T12:54:41.237Z,98981.41
2022-08-17T12:57:17.594Z,98974.03
2022-08-17T12:59:51.863Z,98975.84
2022-08-17T13:02:29.557Z,98982.19
2022-08-17T13:05:02.231Z,98981.59
2022-08-17T13:07:35.532Z,98981.16
2022-08-17T13:10:07.337Z,98987.38
2022-08-17T13:12:40.526Z,98983.84
2022-08-17T13:15:18.701Z,98978.56
2022-08-17T13:17:58.842Z,98974.88
2022-08-17T13:20:30.423Z,98974.94
2022-08-17T13:23:07.495Z,98977.97
2022-08-17T13:25:43.186Z,98978.88
2022-08-17T13:28:32.458Z,98975.75
2022-08-17T13:31:28.136Z,98973.78
2022-08-17T13:34:16.239Z,98974.00
2022-08-17T13:36:50.798Z,98980.81
2022-08-17T13:39:26.212Z,98979.22
2022-08-17T13:41:58.720Z,98976.69
2022-08-17T13:44:32.377Z,98968.91
2022-08-17T13:47:03.417Z,98972.34
2022-08-17T13:49:48.648Z,98975.72
2022-08-17T13:52:38.142Z,98985.41
2022-08-17T13:55:17.264Z,98976.66
2022-08-17T13:57:49.484Z,98977.19
2022-08-17T14:00:36.691Z,98966.31
2022-08-17T14:03:08.236Z,98973.16
2022-08-17T14:05:40.237Z,98968.06
2022-08-17T14:08:15.105Z,98976.56
2022-08-17T14:10:53.541Z,98970.63
2022-08-17T14:13:30.614Z,98971.91
2022-08-17T14:16:03.485Z,98964.88
2022-08-17T14:18:55.318Z,98975.63
2022-08-17T14:21:25.189Z,98970.25
2022-08-17T14:23:55.155Z,98964.22
2022-08-17T14:26:25.677Z,98965.63
2022-08-17T14:28:58.334Z,98956.38
2022-08-17T14:31:37.401Z,98962.47
2022-08-17T14:34:11.041Z,98966.03
2022-08-17T14:36:48.209Z,98967.44
2022-08-17T14:39:19.652Z,98971.69
2022-08-17T14:41:50.415Z,98964.56
2022-08-17T14:44:22.341Z,98962.31
2022-08-17T14:46:53.205Z,98956.72
2022-08-17T14:49:26.101Z,98958.94
2022-08-17T14:51:58.661Z,98964.63
2022-08-17T14:54:34.302Z,98960.97
2022-08-17T14:57:25.736Z,98969.28
2022-08-17T15:00:04.516Z,98965.28
2022-08-17T15:02:45.899Z,98961.25
2022-08-17T15:05:16.840Z,98961.69
2022-08-17T15:07:47.571Z,98959.47
2022-08-17T15:10:20.706Z,98960.13
2022-08-17T15:12:54.428Z,98955.66
2022-08-17T15:15:25.853Z,98961.50
2022-08-17T15:17:57.049Z,98961.88
2022-08-17T15:20:30.082Z,98969.56
2022-08-17T15:22:59.860Z,98961.50
2022-08-17T15:25:34.232Z,98961.69
2022-08-17T15:28:04.643Z,98950.66
2022-08-17T15:30:45.289Z,98959.94
2022-08-17T15:33:18.533Z,98963.84
2022-08-17T15:35:53.625Z,98962.97
2022-08-17T15:38:26.791Z,98964.03
2022-08-17T15:40:58.629Z,98964.78
2022-08-17T15:43:32.773Z,98956.25
2022-08-17T15:46:14.800Z,98956.47
2022-08-17T15:48:47.157Z,98956.53
2022-08-17T15:51:21.269Z,98959.34
2022-08-17T15:53:57.185Z,98961.16
2022-08-17T15:56:28.106Z,98958.34
2022-08-17T15:58:57.570Z,98951.84
2022-08-17T16:02:59.327Z,98961.19
2022-08-17T16:04:30.427Z,98958.75
2022-08-17T16:07:01.768Z,98966.00
2022-08-17T16:09:35.023Z,98966.47
2022-08-17T16:12:14.256Z,98956.03
2022-08-17T16:14:44.399Z,98962.56
2022-08-17T16:17:38.808Z,98962.22
2022-08-17T16:20:20.055Z,98965.69
2022-08-17T16:22:54.434Z,98963.72
2022-08-17T16:25:52.015Z,98966.06
2022-08-17T16:28:35.761Z,98966.69
2022-08-17T16:31:08.114Z,98963.28
2022-08-17T16:33:41.238Z,98968.31
2022-08-17T16:36:12.903Z,98972.56
2022-08-17T16:38:45.555Z,98967.00
2022-08-17T16:41:38.047Z,98975.09
2022-08-17T16:44:08.525Z,98974.97
2022-08-17T16:46:46.600Z,98978.25
2022-08-17T16:49:35.773Z,98980.75
2022-08-17T16:52:11.514Z,98981.97
2022-08-17T16:54:45.651Z,98979.19
2022-08-17T16:57:18.653Z,98981.22
2022-08-17T16:59:51.789Z,98982.00
2022-08-17T17:02:32.869Z,98974.06
2022-08-17T17:05:25.801Z,98973.59
2022-08-17T17:08:03.710Z,98984.19
2022-08-17T17:10:48.922Z,98986.06
2022-08-17T17:13:27.357Z,98979.50
2022-08-17T17:16:07.775Z,98975.03
2022-08-17T17:18:58.644Z,98987.44
2022-08-17T17:21:46.539Z,98992.13
2022-08-17T17:24:35.954Z,98982.97
2022-08-17T17:27:22.746Z,98987.91
2022-08-17T17:30:40.311Z,98988.25
2022-08-17T17:33:18.617Z,98986.78
2022-08-17T17:36:33.340Z,98979.50
2022-08-17T17:39:14.939Z,98980.78
2022-08-17T17:42:04.869Z,98977.78
2022-08-17T17:44:43.400Z,98979.50
2022-08-17T17:47:17.965Z,98969.38
2022-08-17T17:49:49.939Z,98969.53
2022-08-17T17:52:28.264Z,98973.13
2022-08-17T17:55:17.458Z,98968.28
2022-08-17T17:58:04.165Z,98960.69
2022-08-17T18:00:40.423Z,98966.09
2022-08-17T18:03:31.821Z,98960.66
2022-08-17T18:06:19.971Z,98959.09
2022-08-17T18:09:07.532Z,98956.75
2022-08-17T18:12:21.185Z,98953.97
2022-08-17T18:15:12.155Z,98954.28
2022-08-17T18:18:03.254Z,98956.13
2022-08-17T18:20:53.453Z,98949.81
2022-08-17T18:23:28.637Z,98954.34
2022-08-17T18:25:59.843Z,98955.09
2022-08-17T18:28:36.958Z,98952.31
2022-08-17T18:31:13.779Z,98961.00
2022-08-17T18:33:48.666Z,98957.06
2022-08-17T18:36:29.697Z,98959.75
2022-08-17T18:39:16.839Z,98952.78
2022-08-17T18:41:52.303Z,98959.53
2022-08-17T18:44:29.396Z,98958.31
2022-08-17T18:47:14.889Z,98961.28
2022-08-17T18:49:49.395Z,98955.78
2022-08-17T18:52:26.261Z,98955.66
2022-08-17T18:55:14.705Z,98954.13
2022-08-17T18:57:47.754Z,98961.22
2022-08-17T19:00:34.339Z,98958.28
2022-08-17T19:03:07.693Z,98955.88
2022-08-17T19:05:44.491Z,98957.13
2022-08-17T19:08:24.122Z,98949.97
2022-08-17T19:10:57.289Z,98960.22
2022-08-17T19:13:33.076Z,98956.50
2022-08-17T19:16:15.701Z,98960.72
2022-08-17T19:18:52.122Z,98957.28
2022-08-17T19:21:27.404Z,98958.50
2022-08-17T19:24:04.876Z,98957.41
2022-08-17T19:26:50.729Z,98951.31
2022-08-17T19:29:34.200Z,98959.25
2022-08-17T19:32:08.406Z,98959.81
2022-08-17T19:34:44.743Z,98959.81
2022-08-17T19:37:30.474Z,98963.78
2022-08-17T19:40:10.221Z,98959.44
2022-08-17T19:42:47.959Z,98965.94
2022-08-17T19:45:32.880Z,98956.19
2022-08-17T19:48:23.690Z,98957.59
2022-08-17T19:51:03.025Z,98958.16
2022-08-17T19:54:07.120Z,98960.47
2022-08-17T19:56:49.035Z,98953.44
2022-08-17T19:59:36.099Z,98958.72
2022-08-17T20:02:32.237Z,98958.59
2022-08-17T20:05:40.530Z,98957.94
2022-08-17T20:08:50.918Z,98968.75
2022-08-17T20:12:40.364Z,98966.78
2022-08-17T20:15:13.780Z,98965.31
2022-08-17T20:17:48.981Z,98972.19
2022-08-17T20:20:34.075Z,98969.41
2022-08-17T20:23:12.991Z,98972.31
2022-08-17T20:26:09.037Z,98976.28
2022-08-17T20:28:42.001Z,98971.31
2022-08-17T20:31:46.170Z,98972.47
2022-08-17T20:34:36.709Z,98978.63
2022-08-17T20:37:12.335Z,98973.97
2022-08-17T20:40:13.406Z,98979.56
2022-08-17T20:42:49.129Z,98987.94
2022-08-17T20:46:13.470Z,98988.94
2022-08-17T20:48:46.871Z,98987.97
2022-08-17T20:51:28.796Z,98990.56
2022-08-17T20:54:36.837Z,98985.19
2022-08-17T20:57:13.847Z,98991.81
2022-08-17T21:00:14.266Z,98995.81
2022-08-17T21:02:45.113Z,98996.31
2022-08-17T21:05:43.215Z,99001.38
2022-08-17T21:08:20.113Z,98997.19
2022-08-17T21:10:50.512Z,98999.88
2022-08-17T21:13:50.750Z,99001.72
2022-08-17T21:16:38.887Z,98997.25
2022-08-17T21:19:25.078Z,98994.97
2022-08-17T21:22:07.581Z,98992.72
2022-08-17T21:25:09.534Z,98992.97
2022-08-17T21:27:50.471Z,98994.66
2022-08-17T21:30:41.080Z,98999.13
2022-08-17T21:33:24.530Z,98994.44
2022-08-17T21:35:58.648Z,98994.88
2022-08-17T21:38:36.145Z,98997.34
2022-08-17T21:41:06.643Z,98985.94
2022-08-17T21:43:38.342Z,98997.75
2022-08-17T21:46:23.651Z,98992.06
2022-08-17T21:48:56.414Z,98995.66
2022-08-17T21:51:29.257Z,98999.97
2022-08-17T21:54:01.460Z,98998.53
2022-08-17T21:56:38.469Z,98998.00
2022-08-17T21:59:10.432Z,98999.31
2022-08-17T22:02:01.146Z,99007.56
2022-08-17T22:04:32.495Z,99004.44
2022-08-17T22:07:04.773Z,98997.44
2022-08-17T22:09:37.221Z,99007.56
2022-08-17T22:12:11.570Z,98996.19
2022-08-17T22:14:51.816Z,99007.00
2022-08-17T22:17:27.277Z,98998.53
2022-08-17T22:20:01.959Z,98999.41
2022-08-17T22:23:01.938Z,99006.44
2022-08-17T22:25:31.909Z,98997.53
2022-08-17T22:28:03.230Z,99005.88
2022-08-17T22:30:37.813Z,99001.28
2022-08-17T22:33:38.401Z,99001.31
2022-08-17T22:36:30.972Z,98999.53
2022-08-17T22:39:02.124Z,99001.94
2022-08-17T22:41:55.669Z,98997.09
2022-08-17T22:44:29.693Z,99000.78
2022-08-17T22:47:11.238Z,99003.06
2022-08-17T22:49:53.167Z,99003.31
2022-08-17T22:53:03.082Z,99009.09
2022-08-17T22:55:48.582Z,99002.81
2022-08-17T22:58:39.480Z,99009.59
2022-08-17T23:01:25.817Z,99007.53
2022-08-17T23:03:59.707Z,99009.59
2022-08-17T23:06:37.832Z,99017.25
2022-08-17T23:09:08.948Z,99017.34
2022-08-17T23:11:48.714Z,99008.66
2022-08-17T23:14:21.289Z,99012.72
2022-08-17T23:16:53.106Z,99005.28
2022-08-17T23:19:23.909Z,99007.72
2022-08-17T23:21:58.028Z,99012.53
2022-08-17T23:24:29.168Z,99012.41
2022-08-17T23:27:00.134Z,99014.41
2022-08-17T23:29:30.482Z,99008.69
2022-08-17T23:32:01.717Z,99009.81
2022-08-17T23:34:31.479Z,99009.38
2022-08-17T23:37:04.648Z,99005.78
2022-08-17T23:39:34.784Z,99006.78
2022-08-17T23:42:09.202Z,99004.22
2022-08-17T23:44:39.676Z,99008.34
2022-08-17T23:47:09.528Z,99014.16
2022-08-17T23:49:39.265Z,99011.38
2022-08-17T23:52:16.503Z,99015.53
2022-08-17T23:54:48.503Z,99014.41
2022-08-17T23:57:33.649Z,99018.94
